Time,TemperatureF,DewpointF,PressureIn,WindDirection,WindDirectionDegrees,WindSpeedMPH,WindSpeedGustMPH,Humidity,HourlyPrecipIn,Conditions,Clouds,dailyrainin,SoftwareType,DateUTC
2013-01-22 00:12:00,37.4,28.5,30.10,NNE,22,0.0,-999.0,70,-99.99,,,0.00,Acu-Link.com,2013-01-22 06:12:00,
2013-01-22 00:27:00,36.9,28.0,30.11,NNE,22,0.0,-999.0,70,-99.99,,,0.00,Acu-Link.com,2013-01-22 06:27:00,
2013-01-22 00:43:00,36.1,28.0,30.11,NNE,22,0.0,-999.0,72,-99.99,,,0.00,Acu-Link.com,2013-01-22 06:43:00,
2013-01-22 00:58:00,35.8,28.3,30.12,NNE,22,0.0,-999.0,74,-99.99,,,0.00,Acu-Link.com,2013-01-22 06:58:00,
2013-01-22 01:13:00,35.8,28.3,30.12,NNE,22,2.7,-999.0,74,-99.99,,,0.00,Acu-Link.com,2013-01-22 07:13:00,
2013-01-22 01:28:00,36.3,28.8,30.12,NNE,22,0.0,-999.0,74,-99.99,,,0.00,Acu-Link.com,2013-01-22 07:28:00,
2013-01-22 01:44:00,36.3,28.8,30.12,NNE,22,2.7,-999.0,74,-99.99,,,0.00,Acu-Link.com,2013-01-22 07:44:00,
2013-01-22 01:59:00,36.0,28.5,30.13,NNE,22,2.7,-999.0,74,-99.99,,,0.00,Acu-Link.com,2013-01-22 07:59:00,
2013-01-22 02:14:00,35.8,28.7,30.13,NNE,22,2.7,-999.0,75,-99.99,,,0.00,Acu-Link.com,2013-01-22 08:14:00,
2013-01-22 02:30:00,35.6,27.8,30.13,NNE,22,1.7,-999.0,73,-99.99,,,0.00,Acu-Link.com,2013-01-22 08:30:00,
2013-01-22 02:45:00,35.4,28.0,30.13,NNE,22,0.0,-999.0,74,-99.99,,,0.00,Acu-Link.com,2013-01-22 08:45:00,
2013-01-22 03:14:00,35.2,27.8,30.14,NNE,22,2.2,-999.0,74,-99.99,,,0.00,Acu-Link.com,2013-01-22 09:14:00,
2013-01-22 03:29:00,35.2,27.4,30.13,NNE,22,0.0,-999.0,73,-99.99,,,0.00,Acu-Link.com,2013-01-22 09:29:00,
2013-01-22 03:45:00,35.6,28.1,30.13,NNE,22,1.7,-999.0,74,-99.99,,,0.00,Acu-Link.com,2013-01-22 09:45:00,
2013-01-22 04:00:00,34.9,28.8,30.13,NNE,22,1.7,-999.0,78,-99.99,,,0.00,Acu-Link.com,2013-01-22 10:00:00,
2013-01-22 04:15:00,33.8,28.0,30.12,NNE,22,0.0,-999.0,79,-99.99,,,0.00,Acu-Link.com,2013-01-22 10:15:00,
2013-01-22 04:30:00,33.1,28.5,30.12,NNE,22,0.0,-999.0,83,-99.99,,,0.00,Acu-Link.com,2013-01-22 10:30:00,
2013-01-22 04:46:00,33.4,28.2,30.13,NNE,22,0.0,-999.0,81,-99.99,,,0.00,Acu-Link.com,2013-01-22 10:46:00,
2013-01-22 05:01:00,33.1,28.5,30.13,NNE,22,0.0,-999.0,83,-99.99,,,0.00,Acu-Link.com,2013-01-22 11:01:00,
2013-01-22 05:16:00,33.3,28.1,30.14,NNE,22,0.0,-999.0,81,-99.99,,,0.00,Acu-Link.com,2013-01-22 11:16:00,
2013-01-22 05:32:00,33.4,28.2,30.12,NNE,22,0.0,-999.0,81,-99.99,,,0.00,Acu-Link.com,2013-01-22 11:32:00,
2013-01-22 05:47:00,32.7,28.1,30.13,NNE,22,0.0,-999.0,83,-99.99,,,0.00,Acu-Link.com,2013-01-22 11:47:00,
2013-01-22 06:02:00,32.4,28.1,30.13,NNE,22,0.0,-999.0,84,-99.99,,,0.00,Acu-Link.com,2013-01-22 12:02:00,
2013-01-22 06:17:00,32.2,27.9,30.15,NNE,22,0.0,-999.0,84,-99.99,,,0.00,Acu-Link.com,2013-01-22 12:17:00,
2013-01-22 06:32:00,32.0,28.3,30.15,NNE,22,0.0,-999.0,86,-99.99,,,0.00,Acu-Link.com,2013-01-22 12:32:00,
2013-01-22 06:48:00,32.0,26.8,30.14,NNE,22,0.0,-999.0,81,-99.99,,,0.00,Acu-Link.com,2013-01-22 12:48:00,
2013-01-22 07:03:00,31.6,28.2,30.14,NNE,22,0.0,-999.0,87,-99.99,,,0.00,Acu-Link.com,2013-01-22 13:03:00,
2013-01-22 07:18:00,31.1,27.7,30.15,NNE,22,0.0,-999.0,87,-99.99,,,0.00,Acu-Link.com,2013-01-22 13:18:00,
2013-01-22 07:34:00,30.9,28.0,30.16,NNE,22,0.0,-999.0,89,-99.99,,,0.00,Acu-Link.com,2013-01-22 13:34:00,
2013-01-22 07:49:00,31.8,28.7,30.16,NNE,22,0.0,-999.0,88,-99.99,,,0.00,Acu-Link.com,2013-01-22 13:49:00,
2013-01-22 08:04:00,35.1,29.6,30.16,NNE,22,3.2,-999.0,80,-99.99,,,0.00,Acu-Link.com,2013-01-22 14:04:00,
2013-01-22 08:20:00,37.8,29.9,30.17,NNE,22,2.7,-999.0,73,-99.99,,,0.00,Acu-Link.com,2013-01-22 14:20:00,
2013-01-22 08:35:00,41.0,29.8,30.16,NNE,22,3.2,-999.0,64,-99.99,,,0.00,Acu-Link.com,2013-01-22 14:35:00,
2013-01-22 08:50:00,41.2,29.6,30.16,NNE,22,2.7,-999.0,63,-99.99,,,0.00,Acu-Link.com,2013-01-22 14:50:00,
2013-01-22 09:05:00,43.0,30.5,30.16,NNE,22,0.0,-999.0,61,-99.99,,,0.00,Acu-Link.com,2013-01-22 15:05:00,
2013-01-22 09:21:00,44.4,31.0,30.16,NE,45,3.2,-999.0,59,-99.99,,,0.00,Acu-Link.com,2013-01-22 15:21:00,
2013-01-22 09:36:00,46.9,32.5,30.17,NE,45,2.2,-999.0,57,-99.99,,,0.00,Acu-Link.com,2013-01-22 15:36:00,
2013-01-22 09:51:00,48.6,33.2,30.17,NE,45,2.2,-999.0,55,-99.99,,,0.00,Acu-Link.com,2013-01-22 15:51:00,
2013-01-22 10:07:00,51.1,34.6,30.16,NNE,22,2.7,-999.0,53,-99.99,,,0.00,Acu-Link.com,2013-01-22 16:07:00,
2013-01-22 10:22:00,53.2,35.5,30.17,ESE,112,3.2,-999.0,51,-99.99,,,0.00,Acu-Link.com,2013-01-22 16:22:00,
2013-01-22 10:38:00,53.6,37.4,30.17,SSE,157,5.3,-999.0,54,-99.99,,,0.00,Acu-Link.com,2013-01-22 16:38:00,
2013-01-22 10:53:00,54.5,38.2,30.17,South,180,4.7,-999.0,54,-99.99,,,0.00,Acu-Link.com,2013-01-22 16:53:00,
2013-01-22 11:08:00,57.4,39.4,30.16,SSW,202,2.7,-999.0,51,-99.99,,,0.00,Acu-Link.com,2013-01-22 17:08:00,
2013-01-22 11:24:00,57.0,39.1,30.16,SSE,157,5.3,-999.0,51,-99.99,,,0.00,Acu-Link.com,2013-01-22 17:24:00,
2013-01-22 11:39:00,57.9,39.4,30.15,SSE,157,3.7,-999.0,50,-99.99,,,0.00,Acu-Link.com,2013-01-22 17:39:00,
2013-01-22 11:54:00,59.4,39.2,30.13,ESE,112,6.8,-999.0,47,-99.99,,,0.00,Acu-Link.com,2013-01-22 17:54:00,
2013-01-22 12:10:00,61.0,39.5,30.13,SSE,157,4.2,-999.0,45,-99.99,,,0.00,Acu-Link.com,2013-01-22 18:10:00,
2013-01-22 12:25:00,62.4,41.3,30.12,South,180,2.7,-999.0,46,-99.99,,,0.00,Acu-Link.com,2013-01-22 18:25:00,
2013-01-22 12:40:00,63.0,42.5,30.11,South,180,4.2,-999.0,47,-99.99,,,0.00,Acu-Link.com,2013-01-22 18:40:00,
2013-01-22 12:55:00,62.8,42.8,30.10,SSW,202,5.8,-999.0,48,-99.99,,,0.00,Acu-Link.com,2013-01-22 18:55:00,
2013-01-22 13:11:00,63.1,42.5,30.09,SW,225,2.2,-999.0,47,-99.99,,,0.00,Acu-Link.com,2013-01-22 19:11:00,
2013-01-22 13:41:00,66.9,43.7,30.08,South,180,4.2,-999.0,43,-99.99,,,0.00,Acu-Link.com,2013-01-22 19:41:00,
2013-01-22 13:56:00,67.8,44.5,30.07,South,180,3.2,-999.0,43,-99.99,,,0.00,Acu-Link.com,2013-01-22 19:56:00,
2013-01-22 14:12:00,68.4,44.4,30.06,SW,225,7.8,-999.0,42,-99.99,,,0.00,Acu-Link.com,2013-01-22 20:12:00,
2013-01-22 14:27:00,69.6,45.5,30.04,SW,225,3.7,-999.0,42,-99.99,,,0.00,Acu-Link.com,2013-01-22 20:27:00,
2013-01-22 14:42:00,70.9,46.7,30.04,SSW,202,7.8,-999.0,42,-99.99,,,0.00,Acu-Link.com,2013-01-22 20:42:00,
2013-01-22 14:57:00,70.9,46.7,30.03,WSW,247,9.9,-999.0,42,-99.99,,,0.00,Acu-Link.com,2013-01-22 20:57:00,
2013-01-22 15:13:00,71.8,47.5,30.02,SW,225,7.3,-999.0,42,-99.99,,,0.00,Acu-Link.com,2013-01-22 21:13:00,
2013-01-22 15:28:00,71.4,47.7,30.02,SW,225,7.8,-999.0,43,-99.99,,,0.00,Acu-Link.com,2013-01-22 21:28:00,
2013-01-22 15:44:00,72.9,47.8,30.02,SSW,202,6.3,-999.0,41,-99.99,,,0.00,Acu-Link.com,2013-01-22 21:44:00,
2013-01-22 15:59:00,72.5,47.4,30.01,SW,225,13.0,-999.0,41,-99.99,,,0.00,Acu-Link.com,2013-01-22 21:59:00,
2013-01-22 16:14:00,72.3,46.6,30.01,SSW,202,6.3,-999.0,40,-99.99,,,0.00,Acu-Link.com,2013-01-22 22:14:00,
2013-01-22 16:29:00,72.1,46.4,30.01,SSW,202,7.8,-999.0,40,-99.99,,,0.00,Acu-Link.com,2013-01-22 22:29:00,
2013-01-22 16:45:00,72.0,47.0,30.00,South,180,4.7,-999.0,41,-99.99,,,0.00,Acu-Link.com,2013-01-22 22:45:00,
2013-01-22 17:00:00,71.4,46.5,30.01,SW,225,6.8,-999.0,41,-99.99,,,0.00,Acu-Link.com,2013-01-22 23:00:00,
2013-01-22 17:15:00,71.1,46.8,30.01,WSW,247,6.3,-999.0,42,-99.99,,,0.00,Acu-Link.com,2013-01-22 23:15:00,
2013-01-22 17:30:00,70.0,46.5,30.00,SSW,202,4.7,-999.0,43,-99.99,,,0.00,Acu-Link.com,2013-01-22 23:30:00,
2013-01-22 17:46:00,68.9,45.5,29.99,South,180,2.2,-999.0,43,-99.99,,,0.00,Acu-Link.com,2013-01-22 23:46:00,
2013-01-22 18:16:00,64.8,45.7,30.00,SSW,202,0.0,-999.0,50,-99.99,,,0.00,Acu-Link.com,2013-01-23 00:16:00,
2013-01-22 18:32:00,63.1,45.2,30.00,SSW,202,0.0,-999.0,52,-99.99,,,0.00,Acu-Link.com,2013-01-23 00:32:00,
2013-01-22 18:47:00,62.4,45.0,30.00,SSW,202,1.7,-999.0,53,-99.99,,,0.00,Acu-Link.com,2013-01-23 00:47:00,
2013-01-22 19:02:00,60.6,44.8,30.01,SSW,202,0.0,-999.0,56,-99.99,,,0.00,Acu-Link.com,2013-01-23 01:02:00,
2013-01-22 19:18:00,59.5,44.3,30.01,SSW,202,0.0,-999.0,57,-99.99,,,0.00,Acu-Link.com,2013-01-23 01:18:00,
2013-01-22 19:48:00,58.6,44.8,30.02,South,180,1.7,-999.0,60,-99.99,,,0.00,Acu-Link.com,2013-01-23 01:48:00,
2013-01-22 20:04:00,57.2,44.3,30.02,South,180,1.7,-999.0,62,-99.99,,,0.00,Acu-Link.com,2013-01-23 02:04:00,
2013-01-22 20:19:00,56.5,44.5,30.04,South,180,1.1,-999.0,64,-99.99,,,0.00,Acu-Link.com,2013-01-23 02:19:00,
2013-01-22 20:34:00,55.4,44.2,30.04,South,180,0.0,-999.0,66,-99.99,,,0.00,Acu-Link.com,2013-01-23 02:34:00,
2013-01-22 20:50:00,56.1,45.3,30.04,South,180,2.2,-999.0,67,-99.99,,,0.00,Acu-Link.com,2013-01-23 02:50:00,
2013-01-22 21:05:00,56.1,45.3,30.04,South,180,2.7,-999.0,67,-99.99,,,0.00,Acu-Link.com,2013-01-23 03:05:00,
2013-01-22 21:21:00,56.1,45.7,30.05,South,180,1.7,-999.0,68,-99.99,,,0.00,Acu-Link.com,2013-01-23 03:21:00,
2013-01-22 21:51:00,54.3,45.5,30.07,South,180,1.7,-999.0,72,-99.99,,,0.00,Acu-Link.com,2013-01-23 03:51:00,
2013-01-22 22:06:00,53.6,45.5,30.07,South,180,1.7,-999.0,74,-99.99,,,0.00,Acu-Link.com,2013-01-23 04:06:00,
2013-01-22 22:22:00,52.5,45.2,30.07,South,180,1.7,-999.0,76,-99.99,,,0.00,Acu-Link.com,2013-01-23 04:22:00,
2013-01-22 22:37:00,51.8,45.5,30.07,South,180,0.0,-999.0,79,-99.99,,,0.00,Acu-Link.com,2013-01-23 04:37:00,
2013-01-22 22:52:00,51.6,45.3,30.08,South,180,0.0,-999.0,79,-99.99,,,0.00,Acu-Link.com,2013-01-23 04:52:00,
2013-01-22 23:08:00,51.8,45.8,30.08,South,180,2.7,-999.0,80,-99.99,,,0.00,Acu-Link.com,2013-01-23 05:08:00,
2013-01-22 23:23:00,51.6,45.6,30.07,South,180,2.7,-999.0,80,-99.99,,,0.00,Acu-Link.com,2013-01-23 05:23:00,
2013-01-22 23:38:00,51.3,45.7,30.08,South,180,1.7,-999.0,81,-99.99,,,0.00,Acu-Link.com,2013-01-23 05:38:00,
2013-01-22 23:54:00,50.9,45.6,30.08,South,180,2.2,-999.0,82,-99.99,,,0.00,Acu-Link.com,2013-01-23 05:54:00,